Aérodrome :
LOGIN :

S'inscrire | Disclaimer

   EN    FR    IT 

 










Légende :    VFR   VFR Marginal   IFR   IFR Intensif   IFR Très Intensif
Visi : 
Plafond : 
>= 8 km
>= 3000ft
5 à 8 km
1000 à 3000 ft
1500m à 5 km
500 à 1000 ft
800 à 1500m
200 à 500 ft
< 800m
< 200 ft
Symboles :   Orages  Brouillard  Fortes neiges  Fortes précipitations  Vent > 20 kt
SIGMETs :   Divers  Orages  Givrage  Turbulence  Onde Orograph.  Cendres Volcan.






- Altitude de l'aérodrome : 49 ft
- Code IATA : GLZ


EHGR - Gilze-Rijen Airbase

DERNIER METAR :
  • 301834Z AUTO 29007KT 260V320 9999 +DZRA FEW008 SCT014 BKN016 14/13 Q1013 GRN

METARs EXPIRÉS :
  • 301825Z AUTO 31006KT 260V340 9999 -RA FEW008 SCT011 BKN014 14/13 Q1013 RERA REDZ GRN
  • 301812Z AUTO 27004KT 230V340 9999 DZ FEW001 SCT007 BKN010 14/14 Q1013 GRN
  • 301755Z AUTO 28004KT 240V320 9999 -SHRA FEW003 SCT005 SCT015CB BKN025 14/13 Q1013 RERA YLO
  • 301745Z AUTO 28006KT 240V330 9999 -RA FEW007 BKN015CB BKN046 BKN053 14/13 Q1013 WHT
  • 301732Z AUTO 29004KT 230V340 8000 +RA FEW006 BKN015CB BKN032 14/13 Q1013 WHT
  • 301725Z AUTO 26005KT 220V310 5000 +SHRA FEW006 BKN015CB BKN036 14/14 Q1013 REDZ WHT
  • 301655Z AUTO 28009KT 240V320 9999 SHRA FEW006 SCT008 SCT015CB BKN021 14/14 Q1013 GRN
  • 301643Z AUTO 27011KT 240V310 9000 RA FEW006 SCT012 BKN015CB 14/13 Q1013 GRN
  • 301630Z AUTO 27011KT 230V310 6000 +SHRA FEW008 BKN015CB BKN047 14/13 Q1013 WHT
  • 301629Z AUTO 26013KT 210V310 4300 +RA FEW009 BKN015CB BKN031 14/13 Q1013 GRN
  • 301616Z AUTO 28017KT 250V320 9999 -RA FEW010 FEW015CB SCT016 BKN020 14/13 Q1012 WHT
  • 301559Z AUTO 27011KT 250V310 9999 -RA SCT013 FEW015CB BKN016 OVC020 15/13 Q1012 GRN

Prévision TAF périmée.



MET'MAP, la Météo Aéronautique d'un coup d'oeil ! - Copyright ORBIFLY Décembre 2007 - Disclaimer

ORBIFLY MET'MAP TEAM :

Programmation & Développement : Alexandra Zaïnal
Sur une idée originale de : Baudouin d'Aumeries
Soutien technique & logistique : Manuel Goepfert
Assistance : Marc-Olivier Méhu




SOURCES & CREDITS :

   NOAA